Terminal Aerodrome Forecast
Issued by NWS

Home | Current Version | Previous Version | Text Only | Print | Product List | Glossary On
Versions: 1 2 3 4 5 6 7 8 9 10 11 12 13 14 15 16 17 18 19 20 21 22 23
000
FTUS41 KBUF 241120
TAFIAG
TAF
KIAG 241120Z 2412/2512 VRB03KT P6SM BKN250
     FM241400 15005KT P6SM BKN200
     FM241700 21008KT P6SM BKN150
     FM242200 20008KT P6SM VCSH BKN100
     FM251000 22014G22KT P6SM VCSH BKN080=

USA.gov is the U.S. government's official web portal to all federal, state and local government web resources and services.